Lobo

Jump to table bottom
Date/Time Temp deg F RH % 24 Hr Snow (in) Snow Depth (in) SWE (in)
11/24 09:00 26.7 80 2.1 24.4 0.00
11/24 08:00 24.5 77 2.0 24.3 0.00
11/24 07:00 26.1 75 2.0 24.3 0.00
11/24 06:00 26.2 92 2.0 24.2 0.00
11/24 05:00 27.3 85 2.0 24.2 0.00
11/24 04:00 28.5 92 1.9 24.0 0.01
11/24 03:00 29.8 97 1.9 24.1 0.05
11/24 02:00 30.8 98 1.5 23.1 0.12
11/24 01:00 31.6 96 0.5 21.2 0.10
11/24 00:00 35.8 68 0.0 22.3 0.00
11/23 23:00 36.2 65 0.0 22.3 0.00
11/23 22:00 36.9 59 0.1 22.4 0.00
11/23 21:00 37.0 57 0.0 22.4 0.00
11/23 20:00 37.1 58 0.1 22.4 0.00
11/23 19:00 37.4 57 0.1 22.5 0.00
11/23 18:00 37.2 65 0.1 22.5 0.00
11/23 17:00 37.7 66 0.0 22.5 0.00
11/23 16:00 37.8 70 0.0 22.3 0.00
11/23 15:00 40.8 61 0.0 22.4 0.00
11/23 14:00 42.0 60 -0.0 22.1 0.00
11/23 13:00 42.5 60 -0.1 22.1 0.00
11/23 12:00 41.7 64 -0.0 22.8 0.00
11/23 11:00 41.9 61 -0.0 22.7 0.00
11/23 10:00 42.6 58 0.1 23.2 0.00
11/23 09:00 41.2 59 0.2 23.3 0.00
11/23 08:00 40.4 57 0.2 23.4 0.00
11/23 07:00 39.2 55 0.1 23.4 0.00
11/23 06:00 39.5 52 0.1 23.3 0.00
11/23 05:00 40.4 48 0.2 23.7 0.00
11/23 04:00 38.3 61 0.2 23.5 0.00
11/23 03:00 38.0 63 0.2 23.6 0.00
11/23 02:00 38.1 65 0.1 23.5 0.00
11/23 01:00 40.0 59 0.2 23.6 0.00
11/23 00:00 39.6 60 0.1 23.5 0.00
.